sensor_id;sensor_type;location;lat;lon;timestamp;P1;durP1;ratioP1;P2;durP2;ratioP2
42760;SDS011;31672;47.638;19.026;2023-04-24T00:00:13;5.87;;;4.40;;
42760;SDS011;31672;47.638;19.026;2023-04-24T00:05:17;8.23;;;4.43;;
42760;SDS011;31672;47.638;19.026;2023-04-24T00:10:20;6.50;;;4.00;;
42760;SDS011;31672;47.638;19.026;2023-04-24T00:15:23;5.77;;;3.40;;
42760;SDS011;31672;47.638;19.026;2023-04-24T00:20:27;6.47;;;4.30;;
42760;SDS011;31672;47.638;19.026;2023-04-24T00:25:34;5.73;;;4.57;;
42760;SDS011;31672;47.638;19.026;2023-04-24T00:30:37;4.47;;;3.10;;
42760;SDS011;31672;47.638;19.026;2023-04-24T00:35:40;5.30;;;3.37;;
42760;SDS011;31672;47.638;19.026;2023-04-24T00:40:43;4.67;;;3.30;;
42760;SDS011;31672;47.638;19.026;2023-04-24T00:45:47;6.77;;;4.30;;
42760;SDS011;31672;47.638;19.026;2023-04-24T00:50:50;4.80;;;3.43;;
42760;SDS011;31672;47.638;19.026;2023-04-24T00:55:53;4.50;;;3.50;;
42760;SDS011;31672;47.638;19.026;2023-04-24T01:00:56;7.00;;;4.70;;
42760;SDS011;31672;47.638;19.026;2023-04-24T01:06:00;10.93;;;5.50;;
42760;SDS011;31672;47.638;19.026;2023-04-24T01:11:04;9.77;;;5.47;;
42760;SDS011;31672;47.638;19.026;2023-04-24T01:16:07;11.67;;;5.80;;
42760;SDS011;31672;47.638;19.026;2023-04-24T01:21:13;5.23;;;4.03;;
42760;SDS011;31672;47.638;19.026;2023-04-24T01:26:21;10.37;;;5.37;;
42760;SDS011;31672;47.638;19.026;2023-04-24T01:31:25;4.93;;;4.00;;
42760;SDS011;31672;47.638;19.026;2023-04-24T01:36:29;7.37;;;4.30;;
42760;SDS011;31672;47.638;19.026;2023-04-24T01:41:34;9.87;;;5.70;;
42760;SDS011;31672;47.638;19.026;2023-04-24T01:46:37;6.50;;;4.27;;
42760;SDS011;31672;47.638;19.026;2023-04-24T01:51:40;6.60;;;3.93;;
42760;SDS011;31672;47.638;19.026;2023-04-24T01:56:44;4.37;;;3.30;;
42760;SDS011;31672;47.638;19.026;2023-04-24T02:01:48;7.13;;;4.57;;
42760;SDS011;31672;47.638;19.026;2023-04-24T02:06:52;6.77;;;4.73;;
42760;SDS011;31672;47.638;19.026;2023-04-24T02:11:54;7.67;;;4.90;;
42760;SDS011;31672;47.638;19.026;2023-04-24T02:16:58;8.13;;;5.77;;
42760;SDS011;31672;47.638;19.026;2023-04-24T02:22:01;9.00;;;5.83;;
42760;SDS011;31672;47.638;19.026;2023-04-24T02:27:04;7.87;;;6.13;;
42760;SDS011;31672;47.638;19.026;2023-04-24T02:32:07;9.70;;;7.60;;
42760;SDS011;31672;47.638;19.026;2023-04-24T02:37:14;9.43;;;7.50;;
42760;SDS011;31672;47.638;19.026;2023-04-24T02:42:17;10.63;;;7.60;;
42760;SDS011;31672;47.638;19.026;2023-04-24T02:47:20;12.13;;;9.07;;
42760;SDS011;31672;47.638;19.026;2023-04-24T02:52:23;17.03;;;13.87;;
42760;SDS011;31672;47.638;19.026;2023-04-24T02:57:26;16.07;;;12.03;;
42760;SDS011;31672;47.638;19.026;2023-04-24T03:02:29;14.03;;;10.20;;
42760;SDS011;31672;47.638;19.026;2023-04-24T03:07:33;8.20;;;6.20;;
42760;SDS011;31672;47.638;19.026;2023-04-24T03:12:36;8.93;;;7.53;;
42760;SDS011;31672;47.638;19.026;2023-04-24T03:17:38;11.90;;;8.07;;
42760;SDS011;31672;47.638;19.026;2023-04-24T03:22:41;10.47;;;5.70;;
42760;SDS011;31672;47.638;19.026;2023-04-24T03:27:44;11.07;;;7.13;;
42760;SDS011;31672;47.638;19.026;2023-04-24T03:32:48;10.40;;;6.73;;
42760;SDS011;31672;47.638;19.026;2023-04-24T03:37:51;8.00;;;6.73;;
42760;SDS011;31672;47.638;19.026;2023-04-24T03:42:54;17.00;;;11.53;;
42760;SDS011;31672;47.638;19.026;2023-04-24T03:47:57;16.43;;;12.53;;
42760;SDS011;31672;47.638;19.026;2023-04-24T03:53:00;10.90;;;8.90;;
42760;SDS011;31672;47.638;19.026;2023-04-24T03:58:04;27.40;;;17.17;;
42760;SDS011;31672;47.638;19.026;2023-04-24T04:03:08;52.87;;;28.27;;
42760;SDS011;31672;47.638;19.026;2023-04-24T04:08:11;49.47;;;28.73;;
42760;SDS011;31672;47.638;19.026;2023-04-24T04:13:14;22.63;;;15.53;;
42760;SDS011;31672;47.638;19.026;2023-04-24T04:18:17;24.33;;;14.83;;
42760;SDS011;31672;47.638;19.026;2023-04-24T04:23:20;17.63;;;10.47;;
42760;SDS011;31672;47.638;19.026;2023-04-24T04:28:26;15.93;;;9.40;;
42760;SDS011;31672;47.638;19.026;2023-04-24T04:33:29;23.97;;;10.70;;
42760;SDS011;31672;47.638;19.026;2023-04-24T04:38:33;17.13;;;9.87;;
42760;SDS011;31672;47.638;19.026;2023-04-24T04:43:37;9.67;;;6.20;;
42760;SDS011;31672;47.638;19.026;2023-04-24T04:48:41;12.10;;;6.70;;
42760;SDS011;31672;47.638;19.026;2023-04-24T04:53:45;9.83;;;6.90;;
42760;SDS011;31672;47.638;19.026;2023-04-24T04:58:48;10.87;;;5.87;;
42760;SDS011;31672;47.638;19.026;2023-04-24T05:03:51;6.90;;;5.40;;
42760;SDS011;31672;47.638;19.026;2023-04-24T05:08:54;13.13;;;6.80;;
42760;SDS011;31672;47.638;19.026;2023-04-24T05:13:59;8.53;;;5.83;;
42760;SDS011;31672;47.638;19.026;2023-04-24T05:19:02;9.30;;;6.43;;
42760;SDS011;31672;47.638;19.026;2023-04-24T05:24:05;10.87;;;5.83;;
42760;SDS011;31672;47.638;19.026;2023-04-24T05:29:09;8.63;;;6.00;;
42760;SDS011;31672;47.638;19.026;2023-04-24T05:34:12;11.43;;;6.83;;
42760;SDS011;31672;47.638;19.026;2023-04-24T05:39:14;10.23;;;6.20;;
42760;SDS011;31672;47.638;19.026;2023-04-24T05:44:17;12.07;;;7.30;;
42760;SDS011;31672;47.638;19.026;2023-04-24T05:49:21;8.40;;;5.70;;
42760;SDS011;31672;47.638;19.026;2023-04-24T05:54:24;8.27;;;6.63;;
42760;SDS011;31672;47.638;19.026;2023-04-24T05:59:28;8.47;;;6.63;;
42760;SDS011;31672;47.638;19.026;2023-04-24T06:04:31;11.60;;;7.03;;
42760;SDS011;31672;47.638;19.026;2023-04-24T06:09:35;10.67;;;7.37;;
42760;SDS011;31672;47.638;19.026;2023-04-24T06:14:38;7.87;;;6.63;;
42760;SDS011;31672;47.638;19.026;2023-04-24T06:19:41;10.97;;;6.77;;
42760;SDS011;31672;47.638;19.026;2023-04-24T06:24:45;8.63;;;6.80;;
42760;SDS011;31672;47.638;19.026;2023-04-24T06:29:49;8.77;;;6.90;;
42760;SDS011;31672;47.638;19.026;2023-04-24T06:34:56;10.43;;;7.07;;
42760;SDS011;31672;47.638;19.026;2023-04-24T06:40:00;9.20;;;6.07;;
42760;SDS011;31672;47.638;19.026;2023-04-24T06:45:03;8.87;;;7.03;;
42760;SDS011;31672;47.638;19.026;2023-04-24T06:50:07;12.10;;;7.28;;
42760;SDS011;31672;47.638;19.026;2023-04-24T06:55:11;9.20;;;6.55;;
42760;SDS011;31672;47.638;19.026;2023-04-24T07:00:14;10.27;;;7.15;;
42760;SDS011;31672;47.638;19.026;2023-04-24T07:05:17;11.32;;;7.63;;
42760;SDS011;31672;47.638;19.026;2023-04-24T07:10:22;8.77;;;7.10;;
42760;SDS011;31672;47.638;19.026;2023-04-24T07:15:25;9.70;;;7.03;;
42760;SDS011;31672;47.638;19.026;2023-04-24T07:20:28;11.57;;;7.70;;
42760;SDS011;31672;47.638;19.026;2023-04-24T07:25:31;12.65;;;7.32;;
42760;SDS011;31672;47.638;19.026;2023-04-24T07:30:35;9.77;;;7.10;;
42760;SDS011;31672;47.638;19.026;2023-04-24T07:35:38;9.90;;;6.70;;
42760;SDS011;31672;47.638;19.026;2023-04-24T07:40:41;8.45;;;6.97;;
42760;SDS011;31672;47.638;19.026;2023-04-24T07:45:44;9.75;;;7.28;;
42760;SDS011;31672;47.638;19.026;2023-04-24T07:50:47;8.32;;;6.03;;
42760;SDS011;31672;47.638;19.026;2023-04-24T07:55:50;8.23;;;6.30;;
42760;SDS011;31672;47.638;19.026;2023-04-24T08:00:54;14.02;;;8.40;;
42760;SDS011;31672;47.638;19.026;2023-04-24T08:05:57;7.30;;;6.05;;
42760;SDS011;31672;47.638;19.026;2023-04-24T08:11:00;9.02;;;6.47;;
42760;SDS011;31672;47.638;19.026;2023-04-24T08:16:03;7.38;;;5.78;;
42760;SDS011;31672;47.638;19.026;2023-04-24T08:21:06;9.20;;;6.40;;
42760;SDS011;31672;47.638;19.026;2023-04-24T08:26:09;9.27;;;7.22;;
42760;SDS011;31672;47.638;19.026;2023-04-24T08:31:13;9.30;;;6.88;;
42760;SDS011;31672;47.638;19.026;2023-04-24T08:36:16;7.18;;;6.30;;
42760;SDS011;31672;47.638;19.026;2023-04-24T08:41:19;10.43;;;5.88;;
42760;SDS011;31672;47.638;19.026;2023-04-24T08:46:23;7.88;;;5.55;;
42760;SDS011;31672;47.638;19.026;2023-04-24T08:51:27;8.38;;;5.53;;
42760;SDS011;31672;47.638;19.026;2023-04-24T08:56:33;9.25;;;6.07;;
42760;SDS011;31672;47.638;19.026;2023-04-24T09:01:40;10.50;;;5.80;;
42760;SDS011;31672;47.638;19.026;2023-04-24T09:06:44;9.52;;;6.43;;
42760;SDS011;31672;47.638;19.026;2023-04-24T09:11:47;9.20;;;6.25;;
42760;SDS011;31672;47.638;19.026;2023-04-24T09:16:53;8.85;;;5.68;;
42760;SDS011;31672;47.638;19.026;2023-04-24T09:21:56;7.07;;;5.18;;
42760;SDS011;31672;47.638;19.026;2023-04-24T09:26:59;6.80;;;5.60;;
42760;SDS011;31672;47.638;19.026;2023-04-24T09:32:19;6.88;;;5.45;;
42760;SDS011;31672;47.638;19.026;2023-04-24T09:37:28;7.72;;;5.07;;
42760;SDS011;31672;47.638;19.026;2023-04-24T09:42:32;6.40;;;4.88;;
42760;SDS011;31672;47.638;19.026;2023-04-24T09:47:36;8.95;;;5.25;;
42760;SDS011;31672;47.638;19.026;2023-04-24T09:52:43;5.65;;;4.20;;
42760;SDS011;31672;47.638;19.026;2023-04-24T09:58:08;7.13;;;4.95;;
42760;SDS011;31672;47.638;19.026;2023-04-24T10:03:11;7.32;;;4.18;;
42760;SDS011;31672;47.638;19.026;2023-04-24T10:08:15;5.60;;;3.90;;
42760;SDS011;31672;47.638;19.026;2023-04-24T10:13:18;5.55;;;3.60;;
42760;SDS011;31672;47.638;19.026;2023-04-24T10:18:21;6.20;;;4.78;;
42760;SDS011;31672;47.638;19.026;2023-04-24T10:23:26;6.07;;;3.90;;
42760;SDS011;31672;47.638;19.026;2023-04-24T10:28:30;10.55;;;5.45;;
42760;SDS011;31672;47.638;19.026;2023-04-24T10:33:36;7.30;;;4.72;;
42760;SDS011;31672;47.638;19.026;2023-04-24T10:38:41;5.18;;;4.22;;
42760;SDS011;31672;47.638;19.026;2023-04-24T10:43:48;7.63;;;5.05;;
42760;SDS011;31672;47.638;19.026;2023-04-24T10:49:15;6.35;;;4.55;;
42760;SDS011;31672;47.638;19.026;2023-04-24T10:59:50;7.47;;;4.80;;
42760;SDS011;31672;47.638;19.026;2023-04-24T11:05:15;6.47;;;5.07;;
42760;SDS011;31672;47.638;19.026;2023-04-24T11:10:26;6.40;;;4.90;;
42760;SDS011;31672;47.638;19.026;2023-04-24T11:15:29;8.20;;;5.43;;
42760;SDS011;31672;47.638;19.026;2023-04-24T11:20:32;8.75;;;4.90;;
42760;SDS011;31672;47.638;19.026;2023-04-24T11:25:35;7.55;;;5.47;;
42760;SDS011;31672;47.638;19.026;2023-04-24T11:30:38;12.27;;;5.25;;
42760;SDS011;31672;47.638;19.026;2023-04-24T11:35:42;5.95;;;4.40;;
42760;SDS011;31672;47.638;19.026;2023-04-24T11:40:45;6.85;;;5.70;;
42760;SDS011;31672;47.638;19.026;2023-04-24T11:45:51;7.72;;;5.30;;
42760;SDS011;31672;47.638;19.026;2023-04-24T11:50:54;10.20;;;5.35;;
42760;SDS011;31672;47.638;19.026;2023-04-24T11:56:02;8.93;;;5.53;;
42760;SDS011;31672;47.638;19.026;2023-04-24T12:01:06;10.48;;;5.93;;
42760;SDS011;31672;47.638;19.026;2023-04-24T12:06:10;8.27;;;5.97;;
42760;SDS011;31672;47.638;19.026;2023-04-24T12:11:14;10.77;;;6.30;;
42760;SDS011;31672;47.638;19.026;2023-04-24T12:16:20;8.15;;;5.93;;
42760;SDS011;31672;47.638;19.026;2023-04-24T12:21:24;10.63;;;7.60;;
42760;SDS011;31672;47.638;19.026;2023-04-24T12:26:28;8.85;;;6.40;;
42760;SDS011;31672;47.638;19.026;2023-04-24T12:31:32;9.48;;;6.13;;
42760;SDS011;31672;47.638;19.026;2023-04-24T12:36:35;9.15;;;6.78;;
42760;SDS011;31672;47.638;19.026;2023-04-24T12:41:38;8.90;;;5.47;;
42760;SDS011;31672;47.638;19.026;2023-04-24T12:47:01;6.60;;;5.53;;
42760;SDS011;31672;47.638;19.026;2023-04-24T12:52:04;8.93;;;6.90;;
42760;SDS011;31672;47.638;19.026;2023-04-24T12:57:07;13.07;;;6.85;;
42760;SDS011;31672;47.638;19.026;2023-04-24T13:02:10;7.82;;;5.55;;
42760;SDS011;31672;47.638;19.026;2023-04-24T13:07:14;6.30;;;4.30;;
42760;SDS011;31672;47.638;19.026;2023-04-24T13:12:17;6.20;;;3.60;;
42760;SDS011;31672;47.638;19.026;2023-04-24T13:17:21;5.50;;;3.63;;
42760;SDS011;31672;47.638;19.026;2023-04-24T13:22:24;7.15;;;4.60;;
42760;SDS011;31672;47.638;19.026;2023-04-24T13:27:27;5.88;;;3.47;;
42760;SDS011;31672;47.638;19.026;2023-04-24T13:32:30;9.52;;;3.78;;
42760;SDS011;31672;47.638;19.026;2023-04-24T13:37:35;9.02;;;4.90;;
42760;SDS011;31672;47.638;19.026;2023-04-24T13:42:38;6.63;;;4.18;;
42760;SDS011;31672;47.638;19.026;2023-04-24T13:47:42;7.28;;;4.28;;
42760;SDS011;31672;47.638;19.026;2023-04-24T13:52:45;11.70;;;4.82;;
42760;SDS011;31672;47.638;19.026;2023-04-24T13:57:48;13.85;;;6.47;;
42760;SDS011;31672;47.638;19.026;2023-04-24T14:02:51;8.23;;;4.78;;
42760;SDS011;31672;47.638;19.026;2023-04-24T14:07:55;10.25;;;5.55;;
42760;SDS011;31672;47.638;19.026;2023-04-24T14:12:58;11.55;;;6.07;;
42760;SDS011;31672;47.638;19.026;2023-04-24T14:18:01;11.45;;;6.57;;
42760;SDS011;31672;47.638;19.026;2023-04-24T14:23:07;10.93;;;6.00;;
42760;SDS011;31672;47.638;19.026;2023-04-24T14:28:10;6.50;;;4.15;;
42760;SDS011;31672;47.638;19.026;2023-04-24T14:33:13;10.38;;;5.93;;
42760;SDS011;31672;47.638;19.026;2023-04-24T14:38:17;8.98;;;5.38;;
42760;SDS011;31672;47.638;19.026;2023-04-24T14:43:20;10.73;;;5.80;;
42760;SDS011;31672;47.638;19.026;2023-04-24T14:48:23;11.07;;;6.35;;
42760;SDS011;31672;47.638;19.026;2023-04-24T14:53:26;10.73;;;7.50;;
42760;SDS011;31672;47.638;19.026;2023-04-24T14:58:30;7.72;;;5.53;;
42760;SDS011;31672;47.638;19.026;2023-04-24T15:03:33;7.88;;;5.35;;
42760;SDS011;31672;47.638;19.026;2023-04-24T15:08:36;6.32;;;4.45;;
42760;SDS011;31672;47.638;19.026;2023-04-24T15:13:39;5.60;;;4.22;;
42760;SDS011;31672;47.638;19.026;2023-04-24T15:18:42;9.00;;;4.78;;
42760;SDS011;31672;47.638;19.026;2023-04-24T15:23:45;7.68;;;4.90;;
42760;SDS011;31672;47.638;19.026;2023-04-24T15:28:49;6.22;;;4.07;;
42760;SDS011;31672;47.638;19.026;2023-04-24T15:33:52;9.70;;;5.03;;
42760;SDS011;31672;47.638;19.026;2023-04-24T15:38:55;10.88;;;4.47;;
42760;SDS011;31672;47.638;19.026;2023-04-24T15:43:58;4.97;;;3.40;;
42760;SDS011;31672;47.638;19.026;2023-04-24T15:49:02;4.88;;;3.65;;
42760;SDS011;31672;47.638;19.026;2023-04-24T15:54:06;4.53;;;3.60;;
42760;SDS011;31672;47.638;19.026;2023-04-24T15:59:09;5.53;;;3.70;;
42760;SDS011;31672;47.638;19.026;2023-04-24T16:04:12;7.22;;;4.00;;
42760;SDS011;31672;47.638;19.026;2023-04-24T16:09:16;5.43;;;3.30;;
42760;SDS011;31672;47.638;19.026;2023-04-24T16:14:19;5.93;;;3.30;;
42760;SDS011;31672;47.638;19.026;2023-04-24T16:19:22;5.65;;;3.60;;
42760;SDS011;31672;47.638;19.026;2023-04-24T16:24:26;6.47;;;4.20;;
42760;SDS011;31672;47.638;19.026;2023-04-24T16:29:30;5.93;;;3.33;;
42760;SDS011;31672;47.638;19.026;2023-04-24T16:34:33;5.07;;;2.72;;
42760;SDS011;31672;47.638;19.026;2023-04-24T16:39:36;4.57;;;2.60;;
42760;SDS011;31672;47.638;19.026;2023-04-24T16:44:40;5.43;;;2.30;;
42760;SDS011;31672;47.638;19.026;2023-04-24T16:49:44;4.45;;;3.30;;
42760;SDS011;31672;47.638;19.026;2023-04-24T16:54:47;3.92;;;2.80;;
42760;SDS011;31672;47.638;19.026;2023-04-24T16:59:50;5.63;;;3.33;;
42760;SDS011;31672;47.638;19.026;2023-04-24T17:04:53;5.00;;;3.53;;
42760;SDS011;31672;47.638;19.026;2023-04-24T17:09:56;7.97;;;4.03;;
42760;SDS011;31672;47.638;19.026;2023-04-24T17:14:59;5.38;;;2.92;;
42760;SDS011;31672;47.638;19.026;2023-04-24T17:20:02;9.60;;;5.30;;
42760;SDS011;31672;47.638;19.026;2023-04-24T17:25:22;6.13;;;3.90;;
42760;SDS011;31672;47.638;19.026;2023-04-24T17:30:26;8.20;;;3.03;;
42760;SDS011;31672;47.638;19.026;2023-04-24T17:35:29;3.40;;;2.60;;
42760;SDS011;31672;47.638;19.026;2023-04-24T17:40:32;4.15;;;2.60;;
42760;SDS011;31672;47.638;19.026;2023-04-24T17:45:35;5.90;;;3.17;;
42760;SDS011;31672;47.638;19.026;2023-04-24T17:50:38;7.70;;;4.10;;
42760;SDS011;31672;47.638;19.026;2023-04-24T17:55:42;7.27;;;3.83;;
42760;SDS011;31672;47.638;19.026;2023-04-24T18:00:45;4.53;;;2.57;;
42760;SDS011;31672;47.638;19.026;2023-04-24T18:05:48;5.47;;;3.03;;
42760;SDS011;31672;47.638;19.026;2023-04-24T18:10:52;3.83;;;2.50;;
42760;SDS011;31672;47.638;19.026;2023-04-24T18:15:55;5.77;;;3.57;;
42760;SDS011;31672;47.638;19.026;2023-04-24T18:20:58;6.57;;;3.77;;
42760;SDS011;31672;47.638;19.026;2023-04-24T18:26:02;4.50;;;2.73;;
42760;SDS011;31672;47.638;19.026;2023-04-24T18:31:05;4.83;;;3.33;;
42760;SDS011;31672;47.638;19.026;2023-04-24T18:36:09;4.33;;;3.57;;
42760;SDS011;31672;47.638;19.026;2023-04-24T18:41:12;7.53;;;3.93;;
42760;SDS011;31672;47.638;19.026;2023-04-24T18:46:15;3.87;;;2.60;;
42760;SDS011;31672;47.638;19.026;2023-04-24T18:51:19;3.27;;;2.60;;
42760;SDS011;31672;47.638;19.026;2023-04-24T18:56:22;3.43;;;1.93;;
42760;SDS011;31672;47.638;19.026;2023-04-24T19:01:25;3.40;;;2.50;;
42760;SDS011;31672;47.638;19.026;2023-04-24T19:06:28;4.30;;;3.17;;
42760;SDS011;31672;47.638;19.026;2023-04-24T19:11:33;3.57;;;2.53;;
42760;SDS011;31672;47.638;19.026;2023-04-24T19:16:36;4.17;;;3.07;;
42760;SDS011;31672;47.638;19.026;2023-04-24T19:21:39;3.30;;;2.07;;
42760;SDS011;31672;47.638;19.026;2023-04-24T19:26:42;3.30;;;1.90;;
42760;SDS011;31672;47.638;19.026;2023-04-24T19:31:46;3.07;;;2.20;;
42760;SDS011;31672;47.638;19.026;2023-04-24T19:36:49;1.93;;;1.30;;
42760;SDS011;31672;47.638;19.026;2023-04-24T19:41:52;1.87;;;1.40;;
42760;SDS011;31672;47.638;19.026;2023-04-24T19:46:58;3.30;;;1.73;;
42760;SDS011;31672;47.638;19.026;2023-04-24T19:52:01;2.07;;;1.37;;
42760;SDS011;31672;47.638;19.026;2023-04-24T19:57:04;3.87;;;1.93;;
42760;SDS011;31672;47.638;19.026;2023-04-24T20:02:07;6.43;;;2.20;;
42760;SDS011;31672;47.638;19.026;2023-04-24T20:07:12;5.13;;;2.80;;
42760;SDS011;31672;47.638;19.026;2023-04-24T20:12:16;3.73;;;2.10;;
42760;SDS011;31672;47.638;19.026;2023-04-24T20:17:20;3.47;;;2.33;;
42760;SDS011;31672;47.638;19.026;2023-04-24T20:22:23;4.00;;;2.40;;
42760;SDS011;31672;47.638;19.026;2023-04-24T20:27:26;2.60;;;2.00;;
42760;SDS011;31672;47.638;19.026;2023-04-24T20:32:31;5.27;;;2.07;;
42760;SDS011;31672;47.638;19.026;2023-04-24T20:37:34;3.87;;;2.37;;
42760;SDS011;31672;47.638;19.026;2023-04-24T20:42:38;2.33;;;1.80;;
42760;SDS011;31672;47.638;19.026;2023-04-24T20:47:41;2.83;;;1.80;;
42760;SDS011;31672;47.638;19.026;2023-04-24T20:52:44;2.37;;;1.70;;
42760;SDS011;31672;47.638;19.026;2023-04-24T20:57:47;2.10;;;1.73;;
42760;SDS011;31672;47.638;19.026;2023-04-24T21:02:50;3.30;;;2.20;;
42760;SDS011;31672;47.638;19.026;2023-04-24T21:07:54;3.77;;;2.13;;
42760;SDS011;31672;47.638;19.026;2023-04-24T21:12:57;3.03;;;2.33;;
42760;SDS011;31672;47.638;19.026;2023-04-24T21:18:00;4.00;;;2.07;;
42760;SDS011;31672;47.638;19.026;2023-04-24T21:23:04;2.20;;;1.43;;
42760;SDS011;31672;47.638;19.026;2023-04-24T21:28:07;2.60;;;1.70;;
42760;SDS011;31672;47.638;19.026;2023-04-24T21:33:10;2.43;;;1.60;;
42760;SDS011;31672;47.638;19.026;2023-04-24T21:38:13;2.70;;;1.70;;
42760;SDS011;31672;47.638;19.026;2023-04-24T21:43:17;3.33;;;2.10;;
42760;SDS011;31672;47.638;19.026;2023-04-24T21:48:24;4.10;;;1.87;;
42760;SDS011;31672;47.638;19.026;2023-04-24T21:53:27;3.13;;;1.90;;
42760;SDS011;31672;47.638;19.026;2023-04-24T21:58:30;2.70;;;1.77;;
42760;SDS011;31672;47.638;19.026;2023-04-24T22:03:33;2.80;;;1.60;;
42760;SDS011;31672;47.638;19.026;2023-04-24T22:08:37;3.47;;;1.57;;
42760;SDS011;31672;47.638;19.026;2023-04-24T22:13:40;2.00;;;1.47;;
42760;SDS011;31672;47.638;19.026;2023-04-24T22:18:44;1.60;;;1.10;;
42760;SDS011;31672;47.638;19.026;2023-04-24T22:23:49;2.40;;;1.37;;
42760;SDS011;31672;47.638;19.026;2023-04-24T22:28:53;2.47;;;1.17;;
42760;SDS011;31672;47.638;19.026;2023-04-24T22:33:56;1.60;;;1.13;;
42760;SDS011;31672;47.638;19.026;2023-04-24T22:38:58;2.70;;;1.00;;
42760;SDS011;31672;47.638;19.026;2023-04-24T22:44:01;4.60;;;1.60;;
42760;SDS011;31672;47.638;19.026;2023-04-24T22:49:05;1.67;;;1.27;;
42760;SDS011;31672;47.638;19.026;2023-04-24T22:54:09;1.70;;;1.23;;
42760;SDS011;31672;47.638;19.026;2023-04-24T22:59:12;1.70;;;1.40;;
42760;SDS011;31672;47.638;19.026;2023-04-24T23:04:15;4.00;;;2.00;;
42760;SDS011;31672;47.638;19.026;2023-04-24T23:09:18;2.97;;;1.70;;
42760;SDS011;31672;47.638;19.026;2023-04-24T23:14:21;1.77;;;1.30;;
42760;SDS011;31672;47.638;19.026;2023-04-24T23:19:25;2.17;;;1.50;;
42760;SDS011;31672;47.638;19.026;2023-04-24T23:24:28;1.97;;;1.30;;
42760;SDS011;31672;47.638;19.026;2023-04-24T23:29:32;4.13;;;1.40;;
42760;SDS011;31672;47.638;19.026;2023-04-24T23:34:35;2.93;;;1.87;;
42760;SDS011;31672;47.638;19.026;2023-04-24T23:39:40;2.83;;;1.67;;
42760;SDS011;31672;47.638;19.026;2023-04-24T23:44:43;3.20;;;1.70;;
42760;SDS011;31672;47.638;19.026;2023-04-24T23:49:46;2.77;;;1.40;;
42760;SDS011;31672;47.638;19.026;2023-04-24T23:54:49;3.70;;;1.60;;
42760;SDS011;31672;47.638;19.026;2023-04-24T23:59:52;2.00;;;1.20;;
